Time;durP1;ratioP1;P1;durP2;ratioP2;P2;SDS_P1;SDS_P2;PMS_P1;PMS_P2;Temp;Humidity;BMP_temperature;BMP_pressure;BME280_temperature;BME280_humidity;BME280_pressure;Samples;Min_cycle;Max_cycle;Signal;HPM_P1;HPM_P2
2021/01/06 00:02:24;;;;;;;1.70;1.50;;;3.50;98.20;;;;;;5029747;28;20523;-78
2021/01/06 00:04:50;;;;;;;1.70;1.47;;;3.40;98.20;;;;;;5028936;28;20582;-79
2021/01/06 00:07:16;;;;;;;1.60;1.40;;;3.40;98.20;;;;;;5031370;28;20472;-79
2021/01/06 00:09:43;;;;;;;1.60;1.30;;;3.40;98.20;;;;;;5031577;28;20770;-78
2021/01/06 00:12:10;;;;;;;1.70;1.50;;;3.50;98.20;;;;;;5032907;28;21009;-78
2021/01/06 00:14:36;;;;;;;1.60;1.40;;;3.50;98.20;;;;;;5030956;28;20506;-78
2021/01/06 00:17:03;;;;;;;1.60;1.40;;;3.50;98.20;;;;;;5031292;28;20464;-78
2021/01/06 00:19:30;;;;;;;1.70;1.50;;;3.50;98.20;;;;;;5032723;28;20498;-79
2021/01/06 00:21:56;;;;;;;1.77;1.67;;;3.50;98.20;;;;;;5032432;28;20495;-79
2021/01/06 00:24:23;;;;;;;1.67;1.40;;;3.50;98.20;;;;;;5031001;28;20488;-79
2021/01/06 00:26:49;;;;;;;1.67;1.50;;;3.50;98.20;;;;;;5031922;28;20507;-79
2021/01/06 00:29:16;;;;;;;1.70;1.40;;;3.50;98.20;;;;;;5028364;28;20503;-79
2021/01/06 00:31:44;;;;;;;1.60;1.40;;;3.50;98.20;;;;;;5030834;28;20746;-79
2021/01/06 00:34:10;;;;;;;1.60;1.40;;;3.50;98.20;;;;;;5028469;28;20467;-79
2021/01/06 00:36:38;;;;;;;1.60;1.30;;;3.50;98.20;;;;;;5031822;28;20950;-79
2021/01/06 00:39:05;;;;;;;1.70;1.40;;;3.50;98.20;;;;;;5034365;28;20526;-79
2021/01/06 00:41:34;;;;;;;1.60;1.40;;;3.50;98.20;;;;;;5029152;28;20885;-80
2021/01/06 00:44:01;;;;;;;1.60;1.40;;;3.50;98.20;;;;;;5029321;28;21054;-80
2021/01/06 00:46:29;;;;;;;1.60;1.40;;;3.50;98.20;;;;;;5029170;28;20557;-79
2021/01/06 00:48:56;;;;;;;1.63;1.43;;;3.50;98.20;;;;;;5035612;28;20473;-79
2021/01/06 00:51:23;;;;;;;1.67;1.50;;;3.60;98.20;;;;;;5033501;28;20535;-81
2021/01/06 00:53:50;;;;;;;1.67;1.50;;;3.60;98.20;;;;;;5031780;28;20788;-79
2021/01/06 00:56:17;;;;;;;1.60;1.30;;;3.60;98.20;;;;;;5033388;28;20534;-80
2021/01/06 00:58:43;;;;;;;1.63;1.30;;;3.60;98.20;;;;;;5033242;28;20507;-81
2021/01/06 01:01:09;;;;;;;1.67;1.40;;;3.60;98.20;;;;;;5031408;28;20496;-81
2021/01/06 01:03:36;;;;;;;1.60;1.37;;;3.60;98.20;;;;;;5029695;28;20523;-80
2021/01/06 01:06:03;;;;;;;1.70;1.50;;;3.60;98.20;;;;;;5029656;28;20517;-80
2021/01/06 01:08:30;;;;;;;1.70;1.53;;;3.60;98.20;;;;;;5033170;28;20486;-80
2021/01/06 01:10:57;;;;;;;1.70;1.40;;;3.60;98.20;;;;;;5011179;28;20457;-80
2021/01/06 01:13:26;;;;;;;1.63;1.30;;;3.60;98.20;;;;;;5011178;28;20516;-80
2021/01/06 01:15:56;;;;;;;1.70;1.53;;;3.60;98.20;;;;;;5011088;28;20979;-80
2021/01/06 01:18:25;;;;;;;1.63;1.37;;;3.60;98.20;;;;;;5014358;28;20978;-80
2021/01/06 01:20:56;;;;;;;1.70;1.50;;;3.70;98.20;;;;;;5020836;28;20467;-81
2021/01/06 01:23:25;;;;;;;1.70;1.60;;;3.70;98.20;;;;;;5009115;28;20994;-79
2021/01/06 01:25:52;;;;;;;1.70;1.50;;;3.70;98.20;;;;;;5013059;28;20719;-80
2021/01/06 01:28:22;;;;;;;1.67;1.40;;;3.70;98.20;;;;;;5010511;28;20461;-79
2021/01/06 01:30:49;;;;;;;1.73;1.63;;;3.70;98.20;;;;;;5008290;28;20580;-79
2021/01/06 01:33:15;;;;;;;1.67;1.40;;;3.70;98.20;;;;;;5013607;28;20809;-79
2021/01/06 01:35:43;;;;;;;1.67;1.40;;;3.70;98.20;;;;;;5011356;28;20525;-78
2021/01/06 01:38:15;;;;;;;1.60;1.40;;;3.70;98.20;;;;;;5009143;28;20545;-78
2021/01/06 01:40:41;;;;;;;1.63;1.40;;;3.70;98.20;;;;;;5013416;28;20495;-79
2021/01/06 01:43:15;;;;;;;1.67;1.40;;;3.70;98.20;;;;;;5015167;28;20551;-79
2021/01/06 01:46:30;;;;;;;1.63;1.40;;;3.70;98.20;;;;;;5015193;28;20852;-79
2021/01/06 01:49:00;;;;;;;1.60;1.30;;;3.70;98.20;;;;;;5006723;28;20465;-78
2021/01/06 01:51:35;;;;;;;1.70;1.50;;;3.70;98.20;;;;;;5020266;28;20487;-79
2021/01/06 01:54:04;;;;;;;1.70;1.40;;;3.80;98.20;;;;;;5012126;28;20476;-78
2021/01/06 01:56:38;;;;;;;1.60;1.33;;;3.80;98.20;;;;;;5011064;28;21139;-78
2021/01/06 01:59:14;;;;;;;1.67;1.40;;;3.80;98.20;;;;;;5012939;28;20523;-78
2021/01/06 02:01:41;;;;;;;1.60;1.40;;;3.80;98.20;;;;;;5010701;28;20456;-78
2021/01/06 02:04:15;;;;;;;1.70;1.40;;;3.80;98.20;;;;;;5013055;28;20523;-77
2021/01/06 02:06:53;;;;;;;1.60;1.40;;;3.80;98.20;;;;;;5010396;28;20527;-77
2021/01/06 02:09:26;;;;;;;1.70;1.50;;;3.80;98.20;;;;;;5008389;28;20544;-77
2021/01/06 02:12:02;;;;;;;1.67;1.43;;;3.80;98.20;;;;;;5008489;28;20544;-77
2021/01/06 02:14:35;;;;;;;1.67;1.40;;;3.80;98.20;;;;;;5014611;28;20517;-78
2021/01/06 02:17:05;;;;;;;1.67;1.43;;;3.80;98.20;;;;;;5010522;28;20484;-78
2021/01/06 02:19:35;;;;;;;1.60;1.40;;;3.90;98.20;;;;;;5011137;28;20484;-78
2021/01/06 02:22:04;;;;;;;1.60;1.40;;;3.90;98.20;;;;;;5009925;28;20528;-77
2021/01/06 02:24:30;;;;;;;1.70;1.53;;;3.90;98.20;;;;;;5012727;28;20580;-78
2021/01/06 02:26:57;;;;;;;1.63;1.40;;;3.90;98.20;;;;;;5010236;28;20515;-77
2021/01/06 02:29:23;;;;;;;1.70;1.60;;;3.90;98.20;;;;;;5010348;28;20552;-77
2021/01/06 02:31:51;;;;;;;1.67;1.37;;;3.90;98.20;;;;;;5010781;28;20496;-78
2021/01/06 02:34:17;;;;;;;1.70;1.40;;;3.90;98.20;;;;;;5003176;28;21147;-78
2021/01/06 02:36:44;;;;;;;1.67;1.40;;;3.90;98.20;;;;;;5006169;28;20544;-79
2021/01/06 02:39:12;;;;;;;1.70;1.40;;;3.90;98.20;;;;;;5010303;28;20492;-77
2021/01/06 02:41:40;;;;;;;1.70;1.40;;;3.90;98.20;;;;;;5013134;28;20519;-77
2021/01/06 02:44:08;;;;;;;1.73;1.63;;;3.90;98.20;;;;;;5009098;28;20612;-77
2021/01/06 02:46:36;;;;;;;1.63;1.30;;;3.90;98.20;;;;;;5006685;28;20503;-77
2021/01/06 02:49:05;;;;;;;1.67;1.47;;;3.90;98.20;;;;;;5013942;28;20464;-78
2021/01/06 02:51:38;;;;;;;1.70;1.60;;;3.90;98.20;;;;;;5012022;28;20530;-77
2021/01/06 02:54:07;;;;;;;1.60;1.37;;;3.90;98.20;;;;;;5005709;28;20485;-78
2021/01/06 02:56:36;;;;;;;1.60;1.40;;;3.90;98.20;;;;;;5010717;28;20504;-77
2021/01/06 02:59:04;;;;;;;1.70;1.50;;;4.00;98.20;;;;;;5008045;28;20536;-78
2021/01/06 03:01:35;;;;;;;1.60;1.40;;;4.00;98.20;;;;;;5007025;28;20515;-78
2021/01/06 03:04:02;;;;;;;1.60;1.40;;;4.00;98.20;;;;;;5009893;28;20583;-78
2021/01/06 03:06:33;;;;;;;1.70;1.50;;;4.00;98.20;;;;;;5013025;28;20516;-78
2021/01/06 03:09:01;;;;;;;1.63;1.30;;;4.00;98.20;;;;;;5012389;28;21014;-78
2021/01/06 03:11:27;;;;;;;1.63;1.30;;;4.00;98.20;;;;;;5009506;28;20488;-78
2021/01/06 03:13:55;;;;;;;1.60;1.30;;;4.00;98.20;;;;;;5010976;28;20508;-78
2021/01/06 03:16:21;;;;;;;1.70;1.40;;;4.00;98.20;;;;;;5012524;28;20508;-79
2021/01/06 03:18:49;;;;;;;1.60;1.30;;;4.00;98.20;;;;;;5013905;28;20467;-78
2021/01/06 03:21:16;;;;;;;1.60;1.30;;;4.00;98.20;;;;;;5022389;28;20532;-78
2021/01/06 03:23:49;;;;;;;1.67;1.30;;;4.00;98.20;;;;;;5012889;28;21029;-78
2021/01/06 03:26:18;;;;;;;1.60;1.30;;;4.00;98.20;;;;;;5009010;28;20889;-78
2021/01/06 03:28:47;;;;;;;1.60;1.30;;;4.00;98.20;;;;;;5011034;28;20921;-78
2021/01/06 03:31:19;;;;;;;1.70;1.40;;;4.00;98.20;;;;;;5008773;28;20504;-78
2021/01/06 03:33:50;;;;;;;1.60;1.40;;;4.00;98.20;;;;;;5026285;23;20484;-78
2021/01/06 03:36:22;;;;;;;1.60;1.30;;;4.00;98.20;;;;;;5018789;28;20472;-80
2021/01/06 03:38:56;;;;;;;1.70;1.40;;;4.00;98.20;;;;;;5009752;28;20464;-79
2021/01/06 03:41:25;;;;;;;1.70;1.60;;;4.00;98.20;;;;;;5014602;28;20469;-79
2021/01/06 03:43:56;;;;;;;1.67;1.40;;;4.00;98.20;;;;;;5012179;28;20492;-82
2021/01/06 03:46:27;;;;;;;1.60;1.30;;;4.00;98.20;;;;;;5014147;28;20496;-81
2021/01/06 03:49:00;;;;;;;1.70;1.57;;;4.00;98.20;;;;;;5019592;28;20855;-80
2021/01/06 03:51:35;;;;;;;1.63;1.37;;;4.00;98.20;;;;;;5016303;28;20468;-78
2021/01/06 03:54:17;;;;;;;1.60;1.40;;;4.00;98.20;;;;;;5011468;28;21024;-79
2021/01/06 03:56:45;;;;;;;1.63;1.37;;;4.00;98.20;;;;;;5017543;28;20464;-80
2021/01/06 03:59:17;;;;;;;1.60;1.40;;;4.00;98.20;;;;;;5013434;28;20508;-78
2021/01/06 04:01:56;;;;;;;1.60;1.40;;;4.00;98.20;;;;;;5013310;28;20517;-79
2021/01/06 04:04:28;;;;;;;1.63;1.40;;;4.10;98.20;;;;;;5011624;28;20494;-79
2021/01/06 04:06:56;;;;;;;1.67;1.47;;;4.00;98.20;;;;;;5016395;28;20500;-81
2021/01/06 04:09:39;;;;;;;1.67;1.37;;;4.00;98.20;;;;;;5015165;28;20469;-81
2021/01/06 04:12:09;;;;;;;1.63;1.37;;;4.00;98.20;;;;;;5010575;28;20539;-80
2021/01/06 04:14:35;;;;;;;1.70;1.50;;;4.00;98.20;;;;;;5012118;28;20468;-80
2021/01/06 04:17:31;;;;;;;1.70;1.50;;;4.00;98.20;;;;;;5014470;28;20516;-78
2021/01/06 04:20:00;;;;;;;1.60;1.40;;;4.00;98.20;;;;;;5022894;28;20542;-79
2021/01/06 04:22:42;;;;;;;1.67;1.40;;;4.00;98.20;;;;;;5019315;28;20814;-80
2021/01/06 04:25:15;;;;;;;1.60;1.30;;;4.00;98.20;;;;;;5014404;28;21014;-80
2021/01/06 04:27:42;;;;;;;1.70;1.50;;;4.00;98.20;;;;;;5014006;28;21157;-80
2021/01/06 04:30:19;;;;;;;1.70;1.40;;;4.00;98.20;;;;;;5015955;28;20464;-80
2021/01/06 04:32:47;;;;;;;1.70;1.60;;;4.00;98.20;;;;;;5017927;28;20464;-80
2021/01/06 04:35:14;;;;;;;1.60;1.40;;;4.00;98.20;;;;;;5016728;28;20551;-79
2021/01/06 04:37:40;;;;;;;1.63;1.40;;;4.00;98.20;;;;;;5014553;28;20465;-80
2021/01/06 04:40:08;;;;;;;1.63;1.30;;;4.00;98.20;;;;;;5018296;28;20464;-80
2021/01/06 04:42:37;;;;;;;1.60;1.40;;;4.00;98.20;;;;;;5018692;28;20468;-81
2021/01/06 04:45:08;;;;;;;1.70;1.53;;;4.00;98.20;;;;;;5013825;28;20907;-79
2021/01/06 04:47:57;;;;;;;1.63;1.40;;;4.00;98.20;;;;;;5019052;28;20508;-81
2021/01/06 04:50:44;;;;;;;1.60;1.30;;;4.00;98.20;;;;;;5016779;28;20484;-80
2021/01/06 04:53:20;;;;;;;1.70;1.43;;;4.00;98.20;;;;;;5013453;28;20498;-81
2021/01/06 04:55:57;;;;;;;1.63;1.40;;;4.00;98.20;;;;;;5013159;28;20511;-79
2021/01/06 04:58:32;;;;;;;1.67;1.40;;;4.00;98.20;;;;;;5007044;28;20465;-80
2021/01/06 05:01:05;;;;;;;1.60;1.40;;;4.00;98.20;;;;;;5015699;28;20503;-80
2021/01/06 05:03:49;;;;;;;1.60;1.40;;;4.00;98.20;;;;;;5008628;28;20473;-80
2021/01/06 05:06:31;;;;;;;1.70;1.50;;;4.00;98.20;;;;;;5016410;28;20461;-79
2021/01/06 05:09:03;;;;;;;1.60;1.40;;;4.00;98.20;;;;;;5017915;28;20927;-80
2021/01/06 05:11:34;;;;;;;1.73;1.63;;;4.00;98.20;;;;;;5020141;28;20510;-80
2021/01/06 05:14:04;;;;;;;1.70;1.60;;;4.00;98.20;;;;;;5021465;28;20871;-78
2021/01/06 05:16:36;;;;;;;1.70;1.53;;;4.00;98.20;;;;;;5015365;28;20464;-80
2021/01/06 05:19:05;;;;;;;1.60;1.30;;;4.00;98.20;;;;;;5022268;28;20474;-80
2021/01/06 05:21:33;;;;;;;1.70;1.40;;;4.00;98.20;;;;;;5023355;28;20468;-80
2021/01/06 05:24:06;;;;;;;1.70;1.47;;;4.00;98.20;;;;;;5020617;28;20508;-80
2021/01/06 05:26:35;;;;;;;1.70;1.60;;;4.00;98.20;;;;;;5020686;28;20469;-80
2021/01/06 05:29:02;;;;;;;1.67;1.40;;;4.00;98.20;;;;;;5016309;28;20475;-80
2021/01/06 05:31:28;;;;;;;1.60;1.40;;;4.00;98.20;;;;;;5019969;28;20525;-80
2021/01/06 05:33:55;;;;;;;1.70;1.50;;;3.90;98.20;;;;;;5016345;28;20882;-79
2021/01/06 05:36:26;;;;;;;1.70;1.40;;;3.90;98.20;;;;;;5018072;28;20507;-80
2021/01/06 05:38:53;;;;;;;1.70;1.50;;;3.90;98.20;;;;;;5016666;28;20493;-80
2021/01/06 05:41:19;;;;;;;1.70;1.43;;;3.90;98.20;;;;;;5014548;28;20876;-80
2021/01/06 05:43:50;;;;;;;1.67;1.40;;;3.90;98.20;;;;;;5016192;28;21038;-80
2021/01/06 05:46:26;;;;;;;1.60;1.40;;;3.90;98.20;;;;;;5010092;28;20519;-80
2021/01/06 05:48:56;;;;;;;1.70;1.40;;;3.90;98.20;;;;;;5018338;28;20456;-80
2021/01/06 05:51:30;;;;;;;1.70;1.50;;;3.90;98.20;;;;;;5022256;28;20915;-81
2021/01/06 05:54:00;;;;;;;1.63;1.40;;;3.90;98.20;;;;;;5015568;28;20467;-80
2021/01/06 05:56:54;;;;;;;1.70;1.50;;;3.90;98.20;;;;;;5018634;28;20464;-79
2021/01/06 05:59:39;;;;;;;5.10;4.80;;;3.90;98.20;;;;;;5016954;28;20457;-80
2021/01/06 06:02:20;;;;;;;1.70;1.40;;;3.90;98.20;;;;;;5021536;28;20484;-80
2021/01/06 06:05:11;;;;;;;1.70;1.50;;;3.80;98.20;;;;;;5014869;28;20528;-79
2021/01/06 06:07:43;;;;;;;1.70;1.40;;;3.80;98.20;;;;;;5014912;28;20678;-79
2021/01/06 06:10:32;;;;;;;1.70;1.53;;;3.80;98.20;;;;;;5015743;28;20496;-80
2021/01/06 06:13:06;;;;;;;1.70;1.40;;;3.80;98.20;;;;;;5015261;28;21111;-80
2021/01/06 06:16:02;;;;;;;1.70;1.60;;;3.80;98.20;;;;;;5015400;28;21076;-80
2021/01/06 06:18:48;;;;;;;1.60;1.40;;;3.80;98.20;;;;;;5006810;28;20483;-79
2021/01/06 06:21:30;;;;;;;1.60;1.40;;;3.80;98.20;;;;;;5018273;28;20470;-81
2021/01/06 06:24:35;;;;;;;1.63;1.40;;;3.80;98.20;;;;;;5015540;28;20465;-79
2021/01/06 06:27:21;;;;;;;1.70;1.60;;;3.80;98.20;;;;;;5002789;28;20821;-79
2021/01/06 06:29:56;;;;;;;1.60;1.40;;;3.70;98.20;;;;;;5014595;28;20462;-79
2021/01/06 06:32:30;;;;;;;1.67;1.40;;;3.70;98.20;;;;;;5010743;28;20479;-79
2021/01/06 06:35:04;;;;;;;1.70;1.50;;;3.70;98.20;;;;;;5015732;28;20511;-79
2021/01/06 06:37:31;;;;;;;1.67;1.40;;;3.70;98.20;;;;;;5011590;28;20488;-79
2021/01/06 06:40:08;;;;;;;1.70;1.50;;;3.70;98.20;;;;;;5008832;28;20468;-79
2021/01/06 06:42:46;;;;;;;1.63;1.47;;;3.70;98.20;;;;;;5005822;28;20465;-79
2021/01/06 06:45:30;;;;;;;1.63;1.40;;;3.70;98.20;;;;;;5011790;28;20556;-80
2021/01/06 06:48:10;;;;;;;1.67;1.40;;;3.60;98.20;;;;;;5011110;28;20485;-79
2021/01/06 06:51:05;;;;;;;1.70;1.50;;;3.60;98.20;;;;;;5017511;28;20786;-80
2021/01/06 06:53:41;;;;;;;1.70;1.40;;;3.50;98.20;;;;;;4999812;28;20804;-80
2021/01/06 06:56:18;;;;;;;1.67;1.47;;;3.50;98.20;;;;;;5012306;28;20555;-80
2021/01/06 06:58:50;;;;;;;2.23;2.03;;;3.40;98.20;;;;;;5011559;28;20460;-80
2021/01/06 07:01:21;;;;;;;1.70;1.57;;;3.40;98.20;;;;;;5010254;28;20469;-81
2021/01/06 07:03:56;;;;;;;1.70;1.47;;;3.30;98.20;;;;;;5012570;28;20469;-78
2021/01/06 07:06:23;;;;;;;1.70;1.50;;;3.30;98.20;;;;;;5012967;28;21005;-79
2021/01/06 07:08:51;;;;;;;1.70;1.57;;;3.30;98.20;;;;;;5006102;28;20468;-78
2021/01/06 07:11:23;;;;;;;1.67;1.40;;;3.30;98.20;;;;;;5008558;28;20971;-78
2021/01/06 07:14:07;;;;;;;1.70;1.60;;;3.30;98.20;;;;;;5005512;28;20467;-78
2021/01/06 07:16:56;;;;;;;1.70;1.50;;;3.30;98.20;;;;;;5004520;28;20523;-78
2021/01/06 07:19:27;;;;;;;1.60;1.40;;;3.30;98.20;;;;;;5009266;28;20551;-78
2021/01/06 07:21:59;;;;;;;1.63;1.50;;;3.30;98.20;;;;;;5009567;28;20511;-78
2021/01/06 07:24:27;;;;;;;1.60;1.40;;;3.30;98.20;;;;;;5010320;28;20898;-79
2021/01/06 07:26:57;;;;;;;1.60;1.40;;;3.20;98.20;;;;;;5004526;28;20466;-78
2021/01/06 07:29:31;;;;;;;1.63;1.40;;;3.20;98.20;;;;;;5008492;28;20612;-79
2021/01/06 07:32:02;;;;;;;1.60;1.40;;;3.20;98.20;;;;;;5003720;28;20530;-80
2021/01/06 07:34:41;;;;;;;1.63;1.40;;;3.10;98.20;;;;;;5006146;28;20489;-80
2021/01/06 07:37:24;;;;;;;1.80;1.70;;;3.10;98.20;;;;;;5010668;28;20496;-78
2021/01/06 07:39:58;;;;;;;1.63;1.43;;;3.10;98.20;;;;;;5011032;28;20987;-80
2021/01/06 07:42:38;;;;;;;1.63;1.40;;;3.00;98.20;;;;;;5005610;28;20465;-78
2021/01/06 07:45:33;;;;;;;1.60;1.40;;;3.00;98.20;;;;;;5009370;28;20484;-77
2021/01/06 07:48:11;;;;;;;1.70;1.40;;;3.00;98.20;;;;;;5004836;28;20476;-78
2021/01/06 07:50:48;;;;;;;1.67;1.40;;;2.90;98.20;;;;;;5010144;28;20465;-79
2021/01/06 07:53:20;;;;;;;1.70;1.50;;;2.90;98.20;;;;;;5010687;28;20884;-77
2021/01/06 07:56:00;;;;;;;1.70;1.50;;;2.90;98.20;;;;;;5007788;28;21010;-77
2021/01/06 08:05:21;;;;;;;1.70;1.50;;;2.70;98.20;;;;;;4997918;28;20598;-78
2021/01/06 08:07:48;;;;;;;1.67;1.43;;;2.70;98.20;;;;;;5002112;28;20479;-79
2021/01/06 08:10:24;;;;;;;1.60;1.30;;;2.80;98.20;;;;;;5006606;28;20717;-78
2021/01/06 08:12:51;;;;;;;1.70;1.60;;;2.80;98.20;;;;;;5002600;28;20500;-77
2021/01/06 08:15:25;;;;;;;1.70;1.60;;;2.80;98.20;;;;;;5005995;28;20485;-78
2021/01/06 08:17:56;;;;;;;1.67;1.50;;;2.80;98.20;;;;;;5006714;28;20599;-77
2021/01/06 08:20:28;;;;;;;1.70;1.50;;;2.80;98.20;;;;;;5009672;28;20564;-78
2021/01/06 08:23:01;;;;;;;1.70;1.50;;;2.80;98.20;;;;;;5009636;28;20457;-77
2021/01/06 08:25:31;;;;;;;1.60;1.40;;;2.80;98.20;;;;;;5004915;28;21322;-79
2021/01/06 08:27:57;;;;;;;1.70;1.50;;;2.80;98.20;;;;;;5006565;28;20507;-77
2021/01/06 08:30:26;;;;;;;1.67;1.47;;;2.80;98.20;;;;;;5006123;28;20472;-78
2021/01/06 08:33:04;;;;;;;1.67;1.50;;;2.80;98.20;;;;;;5005116;28;21269;-77
2021/01/06 08:35:34;;;;;;;1.70;1.60;;;2.80;98.20;;;;;;5005744;28;20488;-77
2021/01/06 08:38:00;;;;;;;1.73;1.63;;;2.70;98.20;;;;;;5007519;28;20465;-79
2021/01/06 08:40:34;;;;;;;3.20;3.00;;;2.70;98.20;;;;;;5006802;28;20471;-78
2021/01/06 08:43:08;;;;;;;1.60;1.50;;;2.70;98.20;;;;;;5004777;28;20492;-78
2021/01/06 08:45:37;;;;;;;1.70;1.50;;;2.70;98.20;;;;;;5010961;28;20527;-77
2021/01/06 08:48:26;;;;;;;1.60;1.40;;;2.70;98.20;;;;;;5014403;28;21015;-79
2021/01/06 08:50:56;;;;;;;1.70;1.57;;;2.70;98.20;;;;;;5012194;28;20848;-78
2021/01/06 08:53:32;;;;;;;1.70;1.40;;;2.70;98.20;;;;;;5016399;28;20475;-79
2021/01/06 08:56:00;;;;;;;1.60;1.40;;;2.70;98.20;;;;;;5014391;28;20911;-78
2021/01/06 08:58:41;;;;;;;1.80;1.70;;;2.70;98.20;;;;;;5010166;28;20467;-79
2021/01/06 09:01:27;;;;;;;1.70;1.40;;;2.60;98.20;;;;;;5014787;28;20463;-79
2021/01/06 09:04:01;;;;;;;1.67;1.40;;;2.70;98.20;;;;;;5015072;28;20456;-78
2021/01/06 09:06:30;;;;;;;1.70;1.60;;;2.60;98.20;;;;;;5013339;28;20530;-77
2021/01/06 09:09:26;;;;;;;1.60;1.50;;;2.70;98.20;;;;;;5012824;28;20548;-77
2021/01/06 09:11:54;;;;;;;1.60;1.40;;;2.60;98.20;;;;;;5014165;28;20464;-77
2021/01/06 09:14:30;;;;;;;1.63;1.50;;;2.60;98.20;;;;;;5013798;28;20924;-78
2021/01/06 09:17:02;;;;;;;1.60;1.50;;;2.60;98.20;;;;;;5011100;28;20579;-79
2021/01/06 09:19:36;;;;;;;1.63;1.40;;;2.60;98.20;;;;;;5020243;28;20492;-78
2021/01/06 09:22:04;;;;;;;1.60;1.47;;;2.70;98.20;;;;;;5003771;28;21002;-78
2021/01/06 09:24:33;;;;;;;1.67;1.40;;;2.70;98.20;;;;;;5008572;28;20488;-79
2021/01/06 09:27:04;;;;;;;1.63;1.50;;;2.70;98.20;;;;;;5013781;28;20552;-78
2021/01/06 09:29:36;;;;;;;1.60;1.40;;;2.70;98.20;;;;;;5011693;28;20943;-77
2021/01/06 09:32:09;;;;;;;1.67;1.50;;;2.60;98.20;;;;;;5011906;28;20500;-78
2021/01/06 09:34:41;;;;;;;1.60;1.40;;;2.60;98.20;;;;;;5013507;28;20539;-78
2021/01/06 09:37:19;;;;;;;1.60;1.40;;;2.60;98.20;;;;;;5013316;28;20504;-77
2021/01/06 09:39:47;;;;;;;1.70;1.60;;;2.60;98.20;;;;;;5012177;28;20468;-79
2021/01/06 09:42:15;;;;;;;1.60;1.40;;;2.60;98.20;;;;;;5008357;28;20556;-79
2021/01/06 09:44:42;;;;;;;1.67;1.53;;;2.60;98.20;;;;;;5011639;28;20986;-79
2021/01/06 09:47:21;;;;;;;1.70;1.60;;;2.60;98.20;;;;;;5024388;28;20463;-80
2021/01/06 09:49:50;;;;;;;1.70;1.47;;;2.60;98.20;;;;;;5018046;28;20475;-79
2021/01/06 09:52:23;;;;;;;1.63;1.40;;;2.70;98.20;;;;;;5016744;28;20511;-79
2021/01/06 09:54:52;;;;;;;1.70;1.50;;;2.70;98.20;;;;;;5013669;28;20483;-78
2021/01/06 09:57:21;;;;;;;1.60;1.40;;;2.80;98.20;;;;;;5014214;28;20470;-79
2021/01/06 09:59:51;;;;;;;1.63;1.40;;;2.90;98.20;;;;;;5016668;28;20971;-79
2021/01/06 10:02:21;;;;;;;1.60;1.30;;;3.00;98.20;;;;;;5014790;28;20500;-77
2021/01/06 10:04:49;;;;;;;1.67;1.40;;;3.10;98.20;;;;;;5010899;28;20520;-79
2021/01/06 10:07:37;;;;;;;1.63;1.47;;;3.20;98.20;;;;;;5014687;28;20508;-78
2021/01/06 10:10:11;;;;;;;1.60;1.30;;;3.30;98.20;;;;;;5013378;28;20472;-77
2021/01/06 10:12:44;;;;;;;1.63;1.40;;;3.40;98.20;;;;;;5014095;28;20464;-80
2021/01/06 10:15:33;;;;;;;1.67;1.40;;;3.40;98.20;;;;;;5013388;28;20484;-78
2021/01/06 10:18:14;;;;;;;1.63;1.40;;;3.50;98.20;;;;;;5014359;28;21022;-78
2021/01/06 10:20:49;;;;;;;1.70;1.50;;;3.60;98.20;;;;;;5011832;28;20468;-77
2021/01/06 10:23:36;;;;;;;1.70;1.50;;;3.70;98.20;;;;;;5006456;28;20564;-77
2021/01/06 10:26:36;;;;;;;1.60;1.40;;;3.70;98.20;;;;;;5011427;28;20495;-78
2021/01/06 10:29:13;;;;;;;1.70;1.57;;;3.80;98.20;;;;;;4993712;28;21232;-78
2021/01/06 10:32:03;;;;;;;1.60;1.30;;;3.80;98.20;;;;;;5015736;28;20682;-79
2021/01/06 10:34:35;;;;;;;1.60;1.47;;;3.80;98.20;;;;;;5016605;28;20496;-79
2021/01/06 10:37:25;;;;;;;1.70;1.40;;;3.80;98.20;;;;;;5018541;28;20493;-78
2021/01/06 10:39:54;;;;;;;1.63;1.30;;;3.80;98.20;;;;;;5010098;28;20472;-78
2021/01/06 10:42:32;;;;;;;1.67;1.40;;;3.90;98.20;;;;;;5006541;28;20504;-78
2021/01/06 10:45:07;;;;;;;1.60;1.30;;;3.90;98.20;;;;;;5009464;28;20491;-78
2021/01/06 10:47:47;;;;;;;1.70;1.40;;;3.90;98.20;;;;;;5013864;28;20464;-78
2021/01/06 10:50:45;;;;;;;1.70;1.47;;;4.00;98.20;;;;;;5011473;28;20476;-79
2021/01/06 10:53:24;;;;;;;1.63;1.40;;;4.00;98.20;;;;;;5011953;28;20472;-80
2021/01/06 10:55:59;;;;;;;1.60;1.30;;;4.00;98.20;;;;;;5011650;28;20488;-79
2021/01/06 10:58:46;;;;;;;1.80;1.70;;;4.00;98.20;;;;;;5013279;28;20460;-79
2021/01/06 11:02:03;;;;;;;1.60;1.40;;;4.10;98.20;;;;;;5010083;28;20530;-76
2021/01/06 11:04:59;;;;;;;1.70;1.40;;;4.10;98.20;;;;;;4965790;28;20484;-77
2021/01/06 11:07:44;;;;;;;1.63;1.30;;;4.10;98.20;;;;;;5008705;28;20484;-76
2021/01/06 11:10:41;;;;;;;1.70;1.40;;;4.20;98.20;;;;;;5008135;28;20817;-75
2021/01/06 11:13:17;;;;;;;1.67;1.43;;;4.20;98.20;;;;;;5008287;28;20847;-77
2021/01/06 11:15:57;;;;;;;1.70;1.50;;;4.20;98.20;;;;;;5006778;28;20523;-77
2021/01/06 11:18:39;;;;;;;1.60;1.40;;;4.30;98.20;;;;;;4997846;28;20548;-77
2021/01/06 11:21:12;;;;;;;1.70;1.50;;;4.30;98.20;;;;;;4997707;28;20462;-76
2021/01/06 11:23:55;;;;;;;1.60;1.30;;;4.30;98.20;;;;;;4999955;28;20504;-76
2021/01/06 11:26:48;;;;;;;3.50;2.90;;;4.30;98.20;;;;;;4999958;28;20492;-76
2021/01/06 11:29:25;;;;;;;1.70;1.43;;;4.20;98.20;;;;;;5004471;28;20468;-78
2021/01/06 11:32:31;;;;;;;1.70;1.40;;;4.10;98.20;;;;;;5007037;28;20465;-77
2021/01/06 11:35:22;;;;;;;1.60;1.33;;;4.10;98.20;;;;;;5004277;28;20864;-76
2021/01/06 11:37:49;;;;;;;1.60;1.40;;;4.10;98.20;;;;;;5005960;28;20977;-77
2021/01/06 11:40:53;;;;;;;1.63;1.40;;;4.10;98.20;;;;;;5006430;28;20592;-77
2021/01/06 11:43:33;;;;;;;1.67;1.47;;;4.10;98.20;;;;;;5003338;28;20528;-77
2021/01/06 11:46:05;;;;;;;1.60;1.40;;;4.10;98.20;;;;;;5003465;28;20495;-77
2021/01/06 11:48:35;;;;;;;1.70;1.50;;;4.10;98.20;;;;;;5003631;28;20504;-76
2021/01/06 11:51:20;;;;;;;1.63;1.40;;;4.00;98.20;;;;;;5004911;28;20914;-76
2021/01/06 11:53:58;;;;;;;1.63;1.40;;;4.10;98.20;;;;;;5001374;28;20567;-76
2021/01/06 11:56:31;;;;;;;1.63;1.40;;;4.10;98.20;;;;;;5005727;28;20576;-77
2021/01/06 11:59:16;;;;;;;1.70;1.40;;;4.10;98.20;;;;;;5008253;28;20464;-78
2021/01/06 12:02:04;;;;;;;1.60;1.30;;;4.10;98.20;;;;;;5006518;28;20498;-76
2021/01/06 12:04:59;;;;;;;1.63;1.40;;;4.20;98.20;;;;;;5000431;28;20652;-77
2021/01/06 12:07:40;;;;;;;1.70;1.40;;;4.20;98.20;;;;;;4990599;28;20504;-76
2021/01/06 12:10:19;;;;;;;1.70;1.50;;;4.20;98.20;;;;;;5002947;28;20510;-76
2021/01/06 12:13:09;;;;;;;1.60;1.30;;;4.30;98.20;;;;;;5006210;28;20899;-76
2021/01/06 12:15:53;;;;;;;1.63;1.40;;;4.30;98.20;;;;;;5007308;28;21014;-77
2021/01/06 12:19:07;;;;;;;2.00;1.80;;;4.30;98.20;;;;;;5003090;28;20502;-77
2021/01/06 12:21:47;;;;;;;1.70;1.50;;;4.30;98.20;;;;;;5004916;28;20469;-78
2021/01/06 12:24:21;;;;;;;1.60;1.30;;;4.30;98.20;;;;;;5004172;28;20516;-76
2021/01/06 12:26:54;;;;;;;1.70;1.40;;;4.30;98.20;;;;;;5001903;28;20495;-77
2021/01/06 12:29:23;;;;;;;3.53;2.80;;;4.20;98.20;;;;;;5004613;28;20464;-77
2021/01/06 12:31:54;;;;;;;1.60;1.40;;;4.20;98.20;;;;;;5005530;28;20497;-78
2021/01/06 12:34:28;;;;;;;1.60;1.30;;;4.20;98.20;;;;;;5005515;28;20891;-78
2021/01/06 12:37:21;;;;;;;1.70;1.50;;;4.20;98.20;;;;;;5005157;28;20893;-77
2021/01/06 12:40:11;;;;;;;1.70;1.40;;;4.20;98.20;;;;;;5003041;28;20572;-78
2021/01/06 12:42:41;;;;;;;1.60;1.37;;;4.10;98.20;;;;;;5003061;28;20544;-77
2021/01/06 12:45:20;;;;;;;1.70;1.50;;;4.10;98.20;;;;;;5001883;28;20492;-77
2021/01/06 12:47:53;;;;;;;1.70;1.47;;;4.10;98.20;;;;;;5007628;28;20460;-78
2021/01/06 12:50:27;;;;;;;1.60;1.40;;;4.10;98.20;;;;;;5013580;28;20468;-76
2021/01/06 12:52:56;;;;;;;1.60;1.40;;;4.10;98.20;;;;;;5001189;28;20561;-76
2021/01/06 12:55:33;;;;;;;1.63;1.40;;;4.10;98.20;;;;;;5001039;28;21367;-76
2021/01/06 12:58:10;;;;;;;1.67;1.43;;;4.10;98.20;;;;;;5000997;28;20542;-76
2021/01/06 13:00:39;;;;;;;1.70;1.50;;;4.10;98.20;;;;;;5003528;28;20528;-76
2021/01/06 13:03:29;;;;;;;1.67;1.40;;;4.10;98.20;;;;;;5002000;28;20476;-76
2021/01/06 13:06:03;;;;;;;1.70;1.40;;;4.10;98.20;;;;;;5000644;28;20602;-78
2021/01/06 13:08:37;;;;;;;1.70;1.50;;;4.20;98.20;;;;;;4996681;28;20556;-76
2021/01/06 13:11:12;;;;;;;1.60;1.30;;;4.30;98.20;;;;;;5001513;28;20504;-76
2021/01/06 13:13:40;;;;;;;3.73;3.53;;;4.30;98.20;;;;;;5001986;28;20474;-76
2021/01/06 13:16:22;;;;;;;1.60;1.40;;;4.30;98.20;;;;;;5005104;28;20496;-76
2021/01/06 13:19:06;;;;;;;1.97;1.77;;;4.30;98.20;;;;;;5003499;28;20566;-76
2021/01/06 13:21:36;;;;;;;1.70;1.50;;;4.30;98.20;;;;;;4998737;28;20555;-76
2021/01/06 13:24:11;;;;;;;1.60;1.30;;;4.30;98.20;;;;;;4996910;28;20492;-76
2021/01/06 13:26:41;;;;;;;1.63;1.40;;;4.30;98.20;;;;;;4996193;28;20939;-77
2021/01/06 13:29:27;;;;;;;1.60;1.40;;;4.30;98.20;;;;;;4996749;28;20551;-78
2021/01/06 13:32:12;;;;;;;1.60;1.40;;;4.20;98.20;;;;;;4995120;28;20472;-76
2021/01/06 13:34:46;;;;;;;1.67;1.40;;;4.20;98.20;;;;;;5006376;28;20554;-76
2021/01/06 13:37:40;;;;;;;1.70;1.50;;;4.10;98.20;;;;;;5004983;28;21059;-78
2021/01/06 13:40:29;;;;;;;1.60;1.30;;;4.10;98.20;;;;;;4963575;28;20479;-77
2021/01/06 13:43:07;;;;;;;1.63;1.30;;;4.00;98.20;;;;;;5006005;28;20609;-76
2021/01/06 13:45:55;;;;;;;1.60;1.40;;;4.00;98.20;;;;;;5003018;28;20588;-77